Time;durP1;ratioP1;P1;durP2;ratioP2;P2;SDS_P1;SDS_P2;PMS_P1;PMS_P2;Temp;Humidity;BMP_temperature;BMP_pressure;BME280_temperature;BME280_humidity;BME280_pressure;Samples;Min_cycle;Max_cycle;Signal;HPM_P1;HPM_P2
2024/02/06 00:01:27;;;;;;;17.35;4.22;;;10.10;99.90;;;;;;5120646;27;20043;-63
2024/02/06 00:03:54;;;;;;;20.52;5.35;;;10.10;99.90;;;;;;5131940;27;20038;-63
2024/02/06 00:06:21;;;;;;;15.07;4.50;;;10.10;99.90;;;;;;5139983;27;20113;-63
2024/02/06 00:08:47;;;;;;;15.18;4.80;;;10.20;99.90;;;;;;5138026;27;20182;-64
2024/02/06 00:11:13;;;;;;;17.08;4.72;;;10.20;99.90;;;;;;5143216;27;20504;-64
2024/02/06 00:13:39;;;;;;;18.73;5.85;;;10.10;99.90;;;;;;5137757;27;20045;-64
2024/02/06 00:16:13;;;;;;;21.48;4.78;;;10.10;99.90;;;;;;5145892;27;20056;-64
2024/02/06 00:18:39;;;;;;;22.10;4.30;;;10.10;99.90;;;;;;5139210;27;20046;-63
2024/02/06 00:21:05;;;;;;;22.15;5.10;;;10.20;99.90;;;;;;5145188;27;20546;-63
2024/02/06 00:23:31;;;;;;;18.80;4.65;;;10.20;99.90;;;;;;5140922;27;20039;-64
2024/02/06 00:25:57;;;;;;;24.77;5.55;;;10.10;99.90;;;;;;5120531;27;20046;-63
2024/02/06 00:28:22;;;;;;;25.70;5.00;;;10.10;99.90;;;;;;5142646;27;20053;-64
2024/02/06 00:30:48;;;;;;;19.90;4.65;;;10.10;99.90;;;;;;5140973;27;20474;-64
2024/02/06 00:33:14;;;;;;;18.25;5.35;;;10.10;99.90;;;;;;5139550;27;20478;-63
2024/02/06 00:35:40;;;;;;;27.73;6.15;;;10.10;99.90;;;;;;5139264;27;20273;-64
2024/02/06 00:38:07;;;;;;;13.93;4.38;;;10.10;99.90;;;;;;5139355;27;20031;-64
2024/02/06 00:40:33;;;;;;;21.40;5.03;;;10.10;99.90;;;;;;5140947;27;20077;-64
2024/02/06 00:42:59;;;;;;;17.08;5.25;;;10.10;99.90;;;;;;5135464;27;20855;-63
2024/02/06 00:45:24;;;;;;;19.15;5.15;;;10.10;99.90;;;;;;5143109;27;20085;-63
2024/02/06 00:47:51;;;;;;;14.07;3.97;;;10.10;99.90;;;;;;5134844;27;20082;-63
2024/02/06 00:50:18;;;;;;;17.20;4.25;;;10.00;99.90;;;;;;5130002;27;20043;-64
2024/02/06 00:52:44;;;;;;;23.15;5.28;;;10.10;99.90;;;;;;5144599;27;20078;-63
2024/02/06 00:55:09;;;;;;;19.20;4.63;;;10.10;99.90;;;;;;5144557;27;20114;-64
2024/02/06 00:57:35;;;;;;;19.50;4.68;;;10.10;99.90;;;;;;5140318;27;20154;-64
2024/02/06 01:00:01;;;;;;;19.63;4.97;;;10.20;99.90;;;;;;5138695;27;20503;-63
2024/02/06 01:02:29;;;;;;;24.65;5.45;;;10.20;99.90;;;;;;5133184;27;20038;-63
2024/02/06 01:04:55;;;;;;;24.08;4.60;;;10.20;99.90;;;;;;5138228;27;20043;-64
2024/02/06 01:07:21;;;;;;;15.55;4.13;;;10.20;99.90;;;;;;5138477;27;20039;-64
2024/02/06 01:09:47;;;;;;;17.77;4.88;;;10.20;99.90;;;;;;5145123;27;20511;-64
2024/02/06 01:12:13;;;;;;;16.40;5.68;;;10.30;99.90;;;;;;5144048;27;20054;-64
2024/02/06 01:14:39;;;;;;;23.08;5.38;;;10.30;99.90;;;;;;5143458;27;20078;-63
2024/02/06 01:17:05;;;;;;;20.48;4.90;;;10.30;99.90;;;;;;5134394;27;20032;-64
2024/02/06 01:19:31;;;;;;;21.15;5.20;;;10.30;99.90;;;;;;5136306;27;20100;-64
2024/02/06 01:21:57;;;;;;;20.88;5.53;;;10.20;99.90;;;;;;5136033;27;20039;-63
2024/02/06 01:24:23;;;;;;;23.52;5.32;;;10.20;99.90;;;;;;5142913;27;20091;-64
2024/02/06 01:26:48;;;;;;;23.30;5.05;;;10.20;99.90;;;;;;5135401;27;20045;-63
2024/02/06 01:29:14;;;;;;;18.60;4.78;;;10.30;99.90;;;;;;5135885;27;20043;-63
2024/02/06 01:31:41;;;;;;;22.73;4.88;;;10.30;99.90;;;;;;5141719;27;20066;-64
2024/02/06 01:34:07;;;;;;;18.63;4.95;;;10.30;99.90;;;;;;5136329;27;20055;-63
2024/02/06 01:36:36;;;;;;;20.88;5.30;;;10.30;99.90;;;;;;5136506;27;20039;-63
2024/02/06 01:39:02;;;;;;;19.38;5.15;;;10.30;99.90;;;;;;5129058;27;20909;-64
2024/02/06 01:41:28;;;;;;;22.52;5.13;;;10.30;99.90;;;;;;5139694;27;20066;-64
2024/02/06 01:43:54;;;;;;;19.95;4.82;;;10.30;99.90;;;;;;5139283;27;20611;-64
2024/02/06 01:46:20;;;;;;;19.80;5.05;;;10.40;99.90;;;;;;5138097;27;20403;-63
2024/02/06 01:48:47;;;;;;;19.17;4.80;;;10.40;99.90;;;;;;5145417;27;20050;-63
2024/02/06 01:51:15;;;;;;;23.38;4.82;;;10.30;99.90;;;;;;5139221;27;20533;-63
2024/02/06 01:53:43;;;;;;;21.08;5.20;;;10.40;99.90;;;;;;5143787;27;20034;-63
2024/02/06 01:56:09;;;;;;;19.70;4.75;;;10.40;99.90;;;;;;5124166;27;20086;-63
2024/02/06 01:58:35;;;;;;;23.40;5.25;;;10.40;99.90;;;;;;5147579;27;20031;-63
2024/02/06 02:01:03;;;;;;;25.17;5.28;;;10.40;99.90;;;;;;5142237;27;20581;-64
2024/02/06 02:03:32;;;;;;;17.05;4.93;;;10.40;99.90;;;;;;5141251;27;20063;-63
2024/02/06 02:05:59;;;;;;;25.67;5.07;;;10.40;99.90;;;;;;5144554;27;20119;-63
2024/02/06 02:08:30;;;;;;;26.52;5.70;;;10.40;99.90;;;;;;5137850;27;20104;-63
2024/02/06 02:10:56;;;;;;;28.45;5.55;;;10.40;99.90;;;;;;5138860;27;20037;-62
2024/02/06 02:13:22;;;;;;;23.40;6.07;;;10.40;99.90;;;;;;5148030;27;20776;-63
2024/02/06 02:15:48;;;;;;;26.05;6.10;;;10.30;99.90;;;;;;5140877;27;20452;-63
2024/02/06 02:18:14;;;;;;;25.35;6.13;;;10.30;99.90;;;;;;5139104;27;20066;-62
2024/02/06 02:20:41;;;;;;;22.30;5.22;;;10.30;99.90;;;;;;5146794;27;20043;-63
2024/02/06 02:23:08;;;;;;;32.72;7.00;;;10.30;99.90;;;;;;5145870;27;20042;-61
2024/02/06 02:25:34;;;;;;;22.35;6.03;;;10.30;99.90;;;;;;5140242;27;20050;-62
2024/02/06 02:28:01;;;;;;;22.52;5.65;;;10.30;99.90;;;;;;5125276;27;20053;-63
2024/02/06 02:30:28;;;;;;;26.77;5.43;;;10.30;99.90;;;;;;5143878;27;20058;-63
2024/02/06 02:32:56;;;;;;;23.85;5.97;;;10.30;99.90;;;;;;5143306;27;20513;-63
2024/02/06 02:35:31;;;;;;;19.00;5.30;;;10.30;99.90;;;;;;5140806;27;20651;-63
2024/02/06 02:37:57;;;;;;;33.22;6.78;;;10.30;99.90;;;;;;5142249;27;20030;-66
2024/02/06 02:40:23;;;;;;;26.17;6.28;;;10.30;99.90;;;;;;5143723;27;20266;-64
2024/02/06 02:42:49;;;;;;;33.42;6.47;;;10.30;99.90;;;;;;5144759;27;20339;-64
2024/02/06 02:45:15;;;;;;;28.83;5.82;;;10.30;99.90;;;;;;5143464;27;20043;-64
2024/02/06 02:47:43;;;;;;;28.55;5.75;;;10.30;99.90;;;;;;5135071;27;20129;-65
2024/02/06 02:50:09;;;;;;;25.83;6.20;;;10.30;99.90;;;;;;5141440;27;20076;-64
2024/02/06 02:52:35;;;;;;;28.73;6.68;;;10.30;99.90;;;;;;5139572;27;20138;-64
2024/02/06 02:55:00;;;;;;;24.10;6.53;;;10.40;99.90;;;;;;5140876;27;20077;-63
2024/02/06 02:57:26;;;;;;;28.92;6.03;;;10.30;99.90;;;;;;5142531;27;20070;-63
2024/02/06 02:59:52;;;;;;;26.33;5.97;;;10.30;99.90;;;;;;5143266;27;20030;-63
2024/02/06 03:02:18;;;;;;;25.73;6.88;;;10.30;99.90;;;;;;5147192;27;20038;-63
2024/02/06 03:04:43;;;;;;;30.08;6.57;;;10.30;99.90;;;;;;5146366;27;20459;-61
2024/02/06 03:07:09;;;;;;;22.88;5.65;;;10.30;99.90;;;;;;5142894;27;20119;-62
2024/02/06 03:09:36;;;;;;;27.65;5.82;;;10.30;99.90;;;;;;5140294;27;20043;-63
2024/02/06 03:12:02;;;;;;;28.08;6.10;;;10.30;99.90;;;;;;5139616;27;20157;-64
2024/02/06 03:14:27;;;;;;;23.88;5.97;;;10.30;99.90;;;;;;5130840;27;20388;-64
2024/02/06 03:16:53;;;;;;;25.60;6.85;;;10.20;99.90;;;;;;5113225;27;20039;-63
2024/02/06 03:19:19;;;;;;;34.70;6.65;;;10.30;99.90;;;;;;5135753;27;20038;-63
2024/02/06 03:21:46;;;;;;;29.50;6.43;;;10.30;99.90;;;;;;5134367;27;20312;-63
2024/02/06 03:24:11;;;;;;;26.67;6.32;;;10.30;99.90;;;;;;5136594;27;20491;-64
2024/02/06 03:26:37;;;;;;;20.48;5.18;;;10.30;99.90;;;;;;5138727;27;20053;-63
2024/02/06 03:29:03;;;;;;;28.48;5.70;;;10.20;99.90;;;;;;5135207;27;20042;-63
2024/02/06 03:31:29;;;;;;;36.42;6.03;;;10.30;99.90;;;;;;5134467;27;20042;-62
2024/02/06 03:33:54;;;;;;;33.67;6.03;;;10.30;99.90;;;;;;5138119;27;20186;-63
2024/02/06 03:36:20;;;;;;;30.10;6.28;;;10.20;99.90;;;;;;5145417;27;20520;-63
2024/02/06 03:38:46;;;;;;;24.27;6.40;;;10.30;99.90;;;;;;5142676;27;20625;-62
2024/02/06 03:41:12;;;;;;;26.45;5.68;;;10.30;99.90;;;;;;5130423;27;20023;-63
2024/02/06 03:43:38;;;;;;;27.17;6.18;;;10.30;99.90;;;;;;5138801;27;20526;-63
2024/02/06 03:46:04;;;;;;;22.20;5.43;;;10.30;99.90;;;;;;5134466;27;20035;-64
2024/02/06 03:48:34;;;;;;;30.30;6.28;;;10.30;99.90;;;;;;5144153;27;20061;-62
2024/02/06 03:51:01;;;;;;;30.90;6.90;;;10.30;99.90;;;;;;5142877;27;20043;-62
2024/02/06 03:53:27;;;;;;;26.33;6.35;;;10.20;99.90;;;;;;5143874;27;20039;-62
2024/02/06 03:55:53;;;;;;;22.33;5.78;;;10.30;99.90;;;;;;5144347;27;20042;-63
2024/02/06 03:58:19;;;;;;;28.63;6.47;;;10.30;99.90;;;;;;5141548;27;20042;-63
2024/02/06 04:00:50;;;;;;;26.83;6.82;;;10.30;99.90;;;;;;5135536;27;20837;-63
2024/02/06 04:03:18;;;;;;;22.25;5.93;;;10.30;99.90;;;;;;5143011;27;20034;-63
2024/02/06 04:05:45;;;;;;;19.77;4.85;;;10.30;99.90;;;;;;5144928;27;20046;-62
2024/02/06 04:08:11;;;;;;;19.02;4.43;;;10.30;99.90;;;;;;5138987;27;20042;-63
2024/02/06 04:10:37;;;;;;;23.45;5.20;;;10.30;99.90;;;;;;5146058;27;20110;-62
2024/02/06 04:13:06;;;;;;;30.13;6.28;;;10.30;99.90;;;;;;5132453;27;20039;-62
2024/02/06 04:15:31;;;;;;;18.50;5.07;;;10.30;99.90;;;;;;5142038;27;20047;-63
2024/02/06 04:17:57;;;;;;;24.75;5.15;;;10.30;99.90;;;;;;5141132;27;20049;-62
2024/02/06 04:20:23;;;;;;;27.33;5.45;;;10.30;99.90;;;;;;5144717;27;20049;-63
2024/02/06 04:22:49;;;;;;;26.90;5.32;;;10.30;99.90;;;;;;5143031;27;20047;-63
2024/02/06 04:25:15;;;;;;;26.20;6.03;;;10.30;99.90;;;;;;5134905;27;20068;-62
2024/02/06 04:27:41;;;;;;;19.80;4.93;;;10.30;99.90;;;;;;5142822;27;20153;-63
2024/02/06 04:30:07;;;;;;;25.10;5.60;;;10.30;99.90;;;;;;5143738;27;20125;-63
2024/02/06 04:32:33;;;;;;;32.50;5.95;;;10.30;99.90;;;;;;5135884;27;20457;-63
2024/02/06 04:34:59;;;;;;;21.83;5.65;;;10.30;99.90;;;;;;5134847;27;20060;-64
2024/02/06 04:37:24;;;;;;;23.40;5.63;;;10.30;99.90;;;;;;5138457;27;20035;-63
2024/02/06 04:39:50;;;;;;;23.85;5.70;;;10.30;99.90;;;;;;5143058;27;20038;-64
2024/02/06 04:42:16;;;;;;;27.15;5.82;;;10.30;99.90;;;;;;5141072;27;20087;-64
2024/02/06 04:44:42;;;;;;;25.25;5.68;;;10.30;99.90;;;;;;5132857;27;20046;-62
2024/02/06 04:47:08;;;;;;;23.10;5.45;;;10.30;99.90;;;;;;5134416;27;20041;-62
2024/02/06 04:49:33;;;;;;;24.85;5.13;;;10.40;99.90;;;;;;5133599;27;20030;-63
2024/02/06 04:51:59;;;;;;;22.95;5.20;;;10.30;99.90;;;;;;5143063;27;20038;-62
2024/02/06 04:54:25;;;;;;;22.55;5.05;;;10.40;99.90;;;;;;5114207;27;20190;-62
2024/02/06 04:56:50;;;;;;;30.30;6.50;;;10.40;99.90;;;;;;5117982;27;20038;-63
2024/02/06 04:59:16;;;;;;;25.33;5.80;;;10.40;99.90;;;;;;5142250;27;20153;-64
2024/02/06 05:01:42;;;;;;;24.95;5.30;;;10.40;99.90;;;;;;5144131;27;20455;-63
2024/02/06 05:04:08;;;;;;;24.70;5.20;;;10.40;99.90;;;;;;5134288;27;20566;-63
2024/02/06 05:06:34;;;;;;;25.88;5.60;;;10.40;99.90;;;;;;5143623;27;20039;-62
2024/02/06 05:08:59;;;;;;;22.98;5.70;;;10.50;99.90;;;;;;5145014;27;20563;-63
2024/02/06 05:11:25;;;;;;;24.75;5.82;;;10.40;99.90;;;;;;5144605;27;20406;-63
2024/02/06 05:13:51;;;;;;;29.77;5.47;;;10.50;99.90;;;;;;5148210;27;20046;-63
2024/02/06 05:16:17;;;;;;;35.28;5.72;;;10.40;99.90;;;;;;5127445;27;20449;-63
2024/02/06 05:18:43;;;;;;;23.88;5.22;;;10.50;99.90;;;;;;5141269;27;20463;-63
2024/02/06 05:21:10;;;;;;;24.40;6.75;;;10.50;99.90;;;;;;5125396;27;20034;-62
2024/02/06 05:23:36;;;;;;;21.17;4.75;;;10.50;99.90;;;;;;5145317;27;20281;-62
2024/02/06 05:26:01;;;;;;;22.08;4.53;;;10.50;99.90;;;;;;5143653;27;20034;-62
2024/02/06 05:28:27;;;;;;;26.13;5.72;;;10.50;99.90;;;;;;5144541;27;20486;-63
2024/02/06 05:30:53;;;;;;;26.75;5.78;;;10.50;99.90;;;;;;5142659;27;20387;-62
2024/02/06 05:33:19;;;;;;;30.20;5.60;;;10.50;99.90;;;;;;5146962;27;20039;-62
2024/02/06 05:35:45;;;;;;;28.70;6.13;;;10.50;99.90;;;;;;5134753;27;20046;-63
2024/02/06 05:38:11;;;;;;;22.40;5.82;;;10.50;99.90;;;;;;5142543;27;20027;-63
2024/02/06 05:40:36;;;;;;;24.98;4.85;;;10.50;99.90;;;;;;5141188;27;20423;-62
2024/02/06 05:43:02;;;;;;;27.23;5.75;;;10.50;99.90;;;;;;5135233;27;20501;-62
2024/02/06 05:45:28;;;;;;;19.30;5.00;;;10.50;99.90;;;;;;5143323;27;20066;-63
2024/02/06 05:47:55;;;;;;;25.80;5.95;;;10.50;99.90;;;;;;5145229;27;20031;-64
2024/02/06 05:50:22;;;;;;;23.00;5.88;;;10.60;99.90;;;;;;5141802;27;20046;-64
2024/02/06 05:52:48;;;;;;;25.00;4.80;;;10.50;99.90;;;;;;5147946;27;20078;-64
2024/02/06 05:55:14;;;;;;;22.25;4.78;;;10.50;99.90;;;;;;5145639;27;20063;-64
2024/02/06 05:57:40;;;;;;;22.13;4.95;;;10.50;99.90;;;;;;5142536;27;20046;-63
2024/02/06 06:00:07;;;;;;;26.90;5.25;;;10.50;99.90;;;;;;5145964;27;20134;-63
2024/02/06 06:02:33;;;;;;;19.02;4.90;;;10.60;99.90;;;;;;5142931;27;20042;-63
2024/02/06 06:04:58;;;;;;;27.23;5.80;;;10.60;99.90;;;;;;5141752;27;20050;-64
2024/02/06 06:07:24;;;;;;;29.50;7.35;;;10.60;99.90;;;;;;5143910;27;20039;-63
2024/02/06 06:09:50;;;;;;;28.45;5.30;;;10.60;99.90;;;;;;5141703;27;20095;-63
2024/02/06 06:12:16;;;;;;;22.20;5.45;;;10.60;99.90;;;;;;5147033;27;20123;-63
2024/02/06 06:14:41;;;;;;;22.38;5.00;;;10.60;99.90;;;;;;5143592;27;20429;-63
2024/02/06 06:17:07;;;;;;;21.30;5.28;;;10.60;99.90;;;;;;5145961;27;20038;-63
2024/02/06 06:19:33;;;;;;;26.23;5.78;;;10.60;99.90;;;;;;5144254;27;20046;-63
2024/02/06 06:22:02;;;;;;;28.55;5.30;;;10.60;99.90;;;;;;5146462;27;20336;-63
2024/02/06 06:24:28;;;;;;;26.35;4.63;;;10.60;99.90;;;;;;5139258;27;20141;-64
2024/02/06 06:26:54;;;;;;;25.90;5.57;;;10.60;99.90;;;;;;5141049;27;20114;-63
2024/02/06 06:29:19;;;;;;;23.20;6.03;;;10.60;99.90;;;;;;5139650;27;20800;-63
2024/02/06 06:31:45;;;;;;;20.83;5.35;;;10.60;99.90;;;;;;5133121;27;20121;-62
2024/02/06 06:34:11;;;;;;;20.58;4.82;;;10.60;99.90;;;;;;5141710;27;20035;-62
2024/02/06 06:36:36;;;;;;;20.65;5.03;;;10.60;99.90;;;;;;5137250;27;20501;-63
2024/02/06 06:39:02;;;;;;;23.42;5.95;;;10.60;99.90;;;;;;5142329;27;20039;-63
2024/02/06 06:41:28;;;;;;;27.90;5.57;;;10.60;99.90;;;;;;5138574;27;20047;-63
2024/02/06 06:43:54;;;;;;;24.90;5.57;;;10.70;99.90;;;;;;5141079;27;20462;-63
2024/02/06 06:46:20;;;;;;;23.08;5.10;;;10.80;99.90;;;;;;5138029;27;20031;-66
2024/02/06 06:48:46;;;;;;;30.10;5.80;;;10.70;99.90;;;;;;5140759;27;20081;-63
2024/02/06 06:51:12;;;;;;;22.08;5.13;;;10.70;99.90;;;;;;5140460;27;20071;-63
2024/02/06 06:53:38;;;;;;;26.73;6.07;;;10.70;99.90;;;;;;5141287;27;20150;-62
2024/02/06 06:56:04;;;;;;;26.70;5.95;;;10.80;99.90;;;;;;5143182;27;20043;-64
2024/02/06 06:58:30;;;;;;;22.52;5.30;;;10.70;99.90;;;;;;5142508;27;20031;-64
2024/02/06 07:00:56;;;;;;;27.67;5.90;;;10.70;99.90;;;;;;5140520;27;20035;-63
2024/02/06 07:03:21;;;;;;;31.30;5.57;;;10.80;99.90;;;;;;5141717;27;20530;-63
2024/02/06 07:05:51;;;;;;;30.35;6.22;;;10.80;99.90;;;;;;5143686;27;20043;-63
2024/02/06 07:08:17;;;;;;;25.63;5.43;;;10.60;99.90;;;;;;5140527;27;20554;-63
2024/02/06 07:10:42;;;;;;;31.30;7.20;;;10.70;99.90;;;;;;5123066;27;20046;-62
2024/02/06 07:13:08;;;;;;;28.67;6.20;;;10.70;99.90;;;;;;5140472;27;20463;-62
2024/02/06 07:15:34;;;;;;;25.88;5.05;;;10.70;99.90;;;;;;5140792;27;20114;-63
2024/02/06 07:18:00;;;;;;;30.23;6.07;;;10.60;99.90;;;;;;5139827;27;20135;-62
2024/02/06 07:20:25;;;;;;;28.52;6.32;;;10.60;99.90;;;;;;5141286;27;20043;-63
2024/02/06 07:22:52;;;;;;;25.45;5.28;;;10.50;99.90;;;;;;5141338;27;20180;-62
2024/02/06 07:25:19;;;;;;;27.83;6.47;;;10.60;99.90;;;;;;5140731;27;20057;-63
2024/02/06 07:27:44;;;;;;;31.80;5.40;;;10.50;99.90;;;;;;5141966;27;20130;-62
2024/02/06 07:30:10;;;;;;;20.50;6.03;;;10.50;99.90;;;;;;5140227;27;20049;-61
2024/02/06 07:32:36;;;;;;;29.50;5.82;;;10.60;99.90;;;;;;5138840;27;20766;-63
2024/02/06 07:35:02;;;;;;;24.33;5.95;;;10.50;99.90;;;;;;5141098;27;20043;-62
2024/02/06 07:37:28;;;;;;;26.60;6.00;;;10.50;99.90;;;;;;5141066;27;20376;-63
2024/02/06 07:39:53;;;;;;;22.92;4.90;;;10.50;99.90;;;;;;5132851;27;20096;-63
2024/02/06 07:42:19;;;;;;;25.90;5.55;;;10.40;99.90;;;;;;5139399;27;20428;-62
2024/02/06 07:44:45;;;;;;;28.48;5.20;;;10.40;99.90;;;;;;5140204;27;20046;-63
2024/02/06 07:47:11;;;;;;;32.80;6.15;;;10.40;99.90;;;;;;5142545;27;20039;-63
2024/02/06 07:49:36;;;;;;;31.77;5.75;;;10.50;99.90;;;;;;5137820;27;20042;-63
2024/02/06 07:52:06;;;;;;;26.40;5.53;;;10.50;99.90;;;;;;5142388;27;20490;-63
2024/02/06 07:54:32;;;;;;;29.95;6.65;;;10.50;99.90;;;;;;5139676;27;20042;-64
2024/02/06 07:56:58;;;;;;;28.38;4.97;;;10.50;99.90;;;;;;5140245;27;20401;-62
2024/02/06 07:59:24;;;;;;;31.67;5.40;;;10.50;99.90;;;;;;5136912;27;20038;-62
2024/02/06 08:01:50;;;;;;;25.80;5.38;;;10.50;99.90;;;;;;5139708;27;20030;-64
2024/02/06 08:04:16;;;;;;;29.05;5.22;;;10.50;99.90;;;;;;5139577;27;20054;-63
2024/02/06 08:06:41;;;;;;;28.42;4.93;;;10.60;99.90;;;;;;5120060;27;20042;-63
2024/02/06 08:09:08;;;;;;;27.58;6.05;;;10.70;99.90;;;;;;5139996;27;20034;-63
2024/02/06 08:11:34;;;;;;;23.70;4.57;;;10.60;99.90;;;;;;5141589;27;20085;-63
2024/02/06 08:14:03;;;;;;;20.70;4.53;;;10.70;99.90;;;;;;5138536;27;20117;-63
2024/02/06 08:16:29;;;;;;;30.98;5.13;;;10.70;99.90;;;;;;5139041;27;20035;-63
2024/02/06 08:18:54;;;;;;;25.15;4.97;;;10.70;99.90;;;;;;5137075;27;20031;-63
2024/02/06 08:21:20;;;;;;;21.20;4.55;;;10.70;99.90;;;;;;5139118;27;20150;-63
2024/02/06 08:23:46;;;;;;;19.63;3.92;;;10.80;99.90;;;;;;5139815;27;20039;-63
2024/02/06 08:26:12;;;;;;;25.45;4.55;;;10.80;99.90;;;;;;5139552;27;20065;-63
2024/02/06 08:28:37;;;;;;;26.50;5.18;;;10.90;99.90;;;;;;5138858;27;20034;-62
2024/02/06 08:31:04;;;;;;;18.73;4.78;;;10.90;99.90;;;;;;5138397;27;20034;-63
2024/02/06 08:33:30;;;;;;;24.85;4.63;;;10.90;99.90;;;;;;5139621;27;20536;-62
2024/02/06 08:35:56;;;;;;;21.33;4.10;;;11.00;99.90;;;;;;5140790;27;20034;-63
2024/02/06 08:38:22;;;;;;;19.20;4.95;;;11.00;99.90;;;;;;5139661;27;20456;-64
2024/02/06 08:40:48;;;;;;;22.70;4.53;;;11.00;99.90;;;;;;5136901;27;20081;-63
2024/02/06 08:43:13;;;;;;;25.95;5.55;;;11.00;99.90;;;;;;5140606;27;20065;-63
2024/02/06 08:45:39;;;;;;;25.33;4.78;;;11.00;99.90;;;;;;5139493;27;20065;-63
2024/02/06 08:48:06;;;;;;;22.75;4.90;;;11.00;99.90;;;;;;5138595;27;20516;-62
2024/02/06 08:50:33;;;;;;;27.10;5.13;;;11.10;99.90;;;;;;5136703;27;20074;-63
2024/02/06 08:52:59;;;;;;;25.85;5.10;;;11.10;99.90;;;;;;5139361;27;20553;-62
2024/02/06 08:55:25;;;;;;;23.58;4.68;;;11.10;99.90;;;;;;5138938;27;20585;-61
2024/02/06 08:57:51;;;;;;;23.60;5.63;;;11.20;99.90;;;;;;5141104;27;20045;-62
2024/02/06 09:00:18;;;;;;;27.90;5.22;;;11.10;99.90;;;;;;5140699;27;20030;-62
2024/02/06 09:02:43;;;;;;;30.92;5.53;;;11.20;99.90;;;;;;5139551;27;20039;-62
2024/02/06 09:05:09;;;;;;;25.10;4.47;;;11.20;99.90;;;;;;5118968;27;20041;-63
2024/02/06 09:07:35;;;;;;;21.85;5.25;;;11.20;99.90;;;;;;5139787;27;20046;-63
2024/02/06 09:10:03;;;;;;;24.63;5.38;;;11.20;99.90;;;;;;5122024;27;20052;-64
2024/02/06 09:12:29;;;;;;;32.27;5.77;;;11.20;99.90;;;;;;5139743;27;20111;-63
2024/02/06 09:14:56;;;;;;;27.10;5.38;;;11.20;99.90;;;;;;5138611;27;20549;-63
2024/02/06 09:17:22;;;;;;;25.35;5.88;;;11.30;99.90;;;;;;5121059;27;20058;-63
2024/02/06 09:19:48;;;;;;;20.20;4.57;;;11.30;99.90;;;;;;5139971;27;20120;-63
2024/02/06 09:22:13;;;;;;;27.38;4.85;;;11.30;99.90;;;;;;5139544;27;20031;-64
2024/02/06 09:24:39;;;;;;;24.23;5.28;;;11.30;99.90;;;;;;5137699;27;20042;-63
2024/02/06 09:27:05;;;;;;;26.33;5.32;;;11.30;99.90;;;;;;5138251;27;20318;-64
2024/02/06 09:29:31;;;;;;;24.67;5.22;;;11.30;99.90;;;;;;5139068;27;20042;-63
2024/02/06 09:31:56;;;;;;;24.27;4.50;;;11.30;99.90;;;;;;5133250;27;20039;-63
2024/02/06 09:34:22;;;;;;;23.08;5.50;;;11.40;99.90;;;;;;5138098;27;20039;-63
2024/02/06 09:36:48;;;;;;;24.63;5.93;;;11.40;99.90;;;;;;5135388;27;20023;-63
2024/02/06 09:39:14;;;;;;;24.63;5.03;;;11.40;99.90;;;;;;5133247;27;20521;-64
2024/02/06 09:41:43;;;;;;;22.20;5.00;;;11.40;99.90;;;;;;5119069;27;20061;-62
2024/02/06 09:44:10;;;;;;;24.65;5.18;;;11.30;99.90;;;;;;5135496;27;20046;-62
2024/02/06 09:46:36;;;;;;;20.95;4.38;;;11.40;99.90;;;;;;5132540;27;20502;-63
2024/02/06 09:49:01;;;;;;;26.48;4.45;;;11.40;99.90;;;;;;5132148;27;20087;-63
2024/02/06 09:51:29;;;;;;;28.92;4.80;;;11.50;99.90;;;;;;5138252;27;20633;-64
2024/02/06 09:53:59;;;;;;;27.30;5.78;;;11.40;99.90;;;;;;5133502;27;20066;-63
2024/02/06 09:56:29;;;;;;;37.53;6.50;;;11.40;99.90;;;;;;5137412;27;20035;-63
2024/02/06 09:58:57;;;;;;;25.48;5.85;;;11.40;99.90;;;;;;5138990;27;20059;-63
2024/02/06 10:01:24;;;;;;;27.02;6.03;;;11.40;99.90;;;;;;5141738;27;20510;-63
2024/02/06 10:03:52;;;;;;;29.67;6.57;;;11.40;99.90;;;;;;5139614;27;20057;-63
2024/02/06 10:06:22;;;;;;;27.48;4.97;;;11.40;99.90;;;;;;5140404;27;20034;-63
2024/02/06 10:08:52;;;;;;;27.17;5.50;;;11.40;99.90;;;;;;5142454;27;20039;-63
2024/02/06 10:11:18;;;;;;;35.17;6.28;;;11.50;99.90;;;;;;5133373;27;20076;-63
2024/02/06 10:13:46;;;;;;;30.17;5.43;;;11.40;99.90;;;;;;5137542;27;20057;-63
2024/02/06 10:16:12;;;;;;;27.60;5.97;;;11.50;99.90;;;;;;5142513;27;20034;-63
2024/02/06 10:18:55;;;;;;;28.17;6.60;;;11.50;99.90;;;;;;5141169;27;20289;-64
2024/02/06 10:21:21;;;;;;;26.73;5.18;;;11.50;99.90;;;;;;5141592;27;20534;-63
2024/02/06 10:23:48;;;;;;;29.40;6.60;;;11.50;99.90;;;;;;5143745;27;20031;-64
2024/02/06 10:26:19;;;;;;;30.02;5.28;;;11.50;99.90;;;;;;5143340;27;20061;-61
2024/02/06 10:28:46;;;;;;;24.08;5.63;;;11.60;99.90;;;;;;5141412;27;20038;-63
2024/02/06 10:31:13;;;;;;;23.58;5.32;;;11.60;99.90;;;;;;5144891;27;20049;-63
2024/02/06 10:33:39;;;;;;;24.58;5.60;;;11.60;99.90;;;;;;5141118;27;20117;-62
2024/02/06 10:36:05;;;;;;;29.63;5.88;;;11.60;99.90;;;;;;5141552;27;20147;-62
2024/02/06 10:38:32;;;;;;;26.88;5.93;;;11.60;99.90;;;;;;5141705;27;20035;-63
2024/02/06 10:40:58;;;;;;;25.25;5.05;;;11.60;99.90;;;;;;5142261;27;20581;-62
2024/02/06 10:43:31;;;;;;;26.92;5.38;;;11.70;99.90;;;;;;5143643;27;20042;-61
2024/02/06 10:46:00;;;;;;;25.83;5.38;;;11.70;99.90;;;;;;5115983;27;20039;-62
2024/02/06 10:48:26;;;;;;;28.38;5.30;;;11.70;99.90;;;;;;5141813;27;20074;-62
2024/02/06 10:50:58;;;;;;;28.60;5.72;;;11.70;99.90;;;;;;5140434;27;20102;-63
2024/02/06 10:53:24;;;;;;;31.15;5.93;;;11.70;99.90;;;;;;5141198;27;20053;-63
2024/02/06 10:55:57;;;;;;;35.60;6.15;;;11.70;99.90;;;;;;5140189;27;20506;-63
2024/02/06 10:58:27;;;;;;;29.48;5.40;;;11.80;99.90;;;;;;5115993;27;20038;-63
2024/02/06 11:00:54;;;;;;;28.08;5.70;;;11.80;99.90;;;;;;5142428;27;20049;-64
2024/02/06 11:03:23;;;;;;;27.80;5.43;;;11.70;99.90;;;;;;5141310;27;20121;-64
2024/02/06 11:05:57;;;;;;;32.22;5.85;;;11.80;99.90;;;;;;5139034;27;20049;-64
2024/02/06 11:08:27;;;;;;;25.17;5.60;;;11.80;99.90;;;;;;5141496;27;20831;-63
2024/02/06 11:11:00;;;;;;;24.42;5.45;;;11.80;99.90;;;;;;5139909;27;20158;-64
2024/02/06 11:13:36;;;;;;;32.13;5.90;;;11.80;99.90;;;;;;5139402;27;20062;-64
2024/02/06 11:16:08;;;;;;;24.45;5.03;;;11.80;99.90;;;;;;5138910;27;20495;-64
2024/02/06 11:19:11;;;;;;;29.88;5.25;;;11.90;99.90;;;;;;5140294;27;20038;-64
2024/02/06 11:21:44;;;;;;;24.98;4.63;;;11.90;99.90;;;;;;5117733;27;20038;-63
2024/02/06 11:24:10;;;;;;;21.00;4.20;;;11.90;99.90;;;;;;5132879;27;20026;-63
2024/02/06 11:26:39;;;;;;;29.10;5.30;;;11.90;99.90;;;;;;5133170;27;20043;-64
2024/02/06 11:29:09;;;;;;;25.23;5.05;;;12.00;99.90;;;;;;5132287;27;20059;-64
2024/02/06 11:31:37;;;;;;;24.73;4.68;;;12.00;99.90;;;;;;5136503;27;20569;-64
2024/02/06 11:34:18;;;;;;;20.80;4.13;;;12.00;99.90;;;;;;5122777;27;20035;-63
2024/02/06 11:36:45;;;;;;;30.15;5.47;;;11.90;99.90;;;;;;5137370;27;20238;-64
2024/02/06 11:39:21;;;;;;;20.92;4.53;;;12.10;99.90;;;;;;5139813;27;20038;-64
2024/02/06 11:41:48;;;;;;;29.60;5.00;;;12.10;99.90;;;;;;5133280;27;20049;-63
2024/02/06 11:44:14;;;;;;;26.08;4.85;;;12.20;99.90;;;;;;5132576;27;20130;-63
2024/02/06 11:46:47;;;;;;;20.73;3.72;;;12.20;99.90;;;;;;5133050;27;20758;-64
2024/02/06 11:49:20;;;;;;;24.65;5.65;;;12.30;99.90;;;;;;5134447;27;20049;-64
2024/02/06 11:51:54;;;;;;;22.95;4.43;;;12.30;99.90;;;;;;5141900;27;20031;-63
2024/02/06 11:54:21;;;;;;;25.10;5.28;;;12.30;99.90;;;;;;5138567;27;20647;-61
2024/02/06 11:56:48;;;;;;;23.38;4.75;;;12.30;99.90;;;;;;5140630;27;20168;-62
2024/02/06 11:59:14;;;;;;;24.83;5.32;;;12.20;99.90;;;;;;5139717;27;20077;-62
2024/02/06 12:01:41;;;;;;;32.83;6.28;;;12.30;99.90;;;;;;5138768;27;20035;-62
2024/02/06 12:04:08;;;;;;;21.77;4.75;;;12.30;99.90;;;;;;5136521;27;20042;-63
2024/02/06 12:06:34;;;;;;;21.73;5.35;;;12.30;99.90;;;;;;5140871;27;20041;-62
2024/02/06 12:09:02;;;;;;;21.05;4.57;;;12.40;99.90;;;;;;5140209;27;20031;-63
2024/02/06 12:11:34;;;;;;;23.30;4.82;;;12.30;99.90;;;;;;5133462;27;20043;-62
2024/02/06 12:14:01;;;;;;;26.45;4.35;;;12.30;99.90;;;;;;5135923;27;20038;-63
2024/02/06 12:16:27;;;;;;;21.58;4.38;;;12.30;99.90;;;;;;5139659;27;20034;-62
2024/02/06 12:18:54;;;;;;;20.95;4.95;;;12.30;99.90;;;;;;5139828;27;20038;-63
2024/02/06 12:21:21;;;;;;;22.42;4.63;;;12.40;99.90;;;;;;5135569;27;20070;-62
2024/02/06 12:23:46;;;;;;;22.25;4.90;;;12.30;99.90;;;;;;5130973;27;21072;-62
2024/02/06 12:26:21;;;;;;;24.00;4.47;;;12.40;99.90;;;;;;5128379;27;21436;-63
2024/02/06 12:28:47;;;;;;;24.58;4.57;;;12.40;99.90;;;;;;5123972;27;20544;-63
2024/02/06 12:31:13;;;;;;;26.30;4.40;;;12.40;99.90;;;;;;5126653;27;20047;-63
2024/02/06 12:33:40;;;;;;;18.58;4.50;;;12.30;99.90;;;;;;5128178;27;20391;-63